createdAt,value
2018-01-17T00:02:25.299Z,93.30
2018-01-17T00:04:52.737Z,93.30
2018-01-17T00:07:20.951Z,93.60
2018-01-17T00:09:48.397Z,93.60
2018-01-17T00:12:15.845Z,94.10
2018-01-17T00:14:43.284Z,94.30
2018-01-17T00:17:10.708Z,94.40
2018-01-17T00:19:38.128Z,94.30
2018-01-17T00:22:05.547Z,93.90
2018-01-17T00:24:33.733Z,94.10
2018-01-17T00:27:01.147Z,94.10
2018-01-17T00:29:29.337Z,94.10
2018-01-17T00:31:56.754Z,94.10
2018-01-17T00:34:24.951Z,94.10
2018-01-17T00:36:52.363Z,94.10
2018-01-17T00:39:19.783Z,94.50
2018-01-17T00:41:47.967Z,94.00
2018-01-17T00:44:15.386Z,94.00
2018-01-17T00:46:43.568Z,94.20
2018-01-17T00:49:10.983Z,94.20
2018-01-17T00:51:39.167Z,94.30
2018-01-17T00:54:06.595Z,94.30
2018-01-17T00:56:34.019Z,94.20
2018-01-17T00:59:02.204Z,93.90
2018-01-17T01:01:29.623Z,93.90
2018-01-17T01:03:57.820Z,93.90
2018-01-17T01:06:25.236Z,93.90
2018-01-17T01:08:53.419Z,93.80
2018-01-17T01:11:20.835Z,93.80
2018-01-17T01:13:48.274Z,93.20
2018-01-17T01:16:16.448Z,92.90
2018-01-17T01:18:43.879Z,92.90
2018-01-17T01:21:11.303Z,92.90
2018-01-17T01:23:39.483Z,92.90
2018-01-17T01:26:06.916Z,92.90
2018-01-17T01:28:35.103Z,92.80
2018-01-17T01:31:02.562Z,92.70
2018-01-17T01:33:30.026Z,92.60
2018-01-17T01:35:57.469Z,92.80
2018-01-17T01:38:24.922Z,92.40
2018-01-17T01:40:52.332Z,92.60
2018-01-17T01:43:19.802Z,92.90
2018-01-17T01:45:47.257Z,93.20
2018-01-17T01:48:16.206Z,92.80
2018-01-17T01:50:43.658Z,92.80
2018-01-17T01:53:11.105Z,93.00
2018-01-17T01:55:38.665Z,92.50
2018-01-17T01:58:06.887Z,91.80
2018-01-17T02:00:34.338Z,91.70
2018-01-17T02:03:01.790Z,91.30
2018-01-17T02:05:29.254Z,91.40
2018-01-17T02:07:56.698Z,91.10
2018-01-17T02:10:24.914Z,89.90
2018-01-17T02:12:52.375Z,89.90
2018-01-17T02:15:19.826Z,90.10
2018-01-17T02:17:47.281Z,90.60
2018-01-17T02:20:15.452Z,90.90
2018-01-17T02:22:42.863Z,90.50
2018-01-17T02:25:11.047Z,88.80
2018-01-17T02:27:38.472Z,89.20
2018-01-17T02:30:06.655Z,89.70
2018-01-17T02:32:34.068Z,89.50
2018-01-17T02:35:01.497Z,88.10
2018-01-17T02:37:28.904Z,86.30
2018-01-17T02:40:08.262Z,87.10
2018-01-17T02:42:35.668Z,85.40
2018-01-17T02:45:03.092Z,86.10
2018-01-17T02:47:30.500Z,86.10
2018-01-17T02:49:58.683Z,84.90
2018-01-17T02:52:26.099Z,84.90
2018-01-17T02:54:54.284Z,84.70
2018-01-17T02:57:21.699Z,84.70
2018-01-17T02:59:49.883Z,85.10
2018-01-17T03:02:17.304Z,85.00
2018-01-17T03:04:45.488Z,85.00
2018-01-17T03:07:12.920Z,85.00
2018-01-17T03:09:41.092Z,82.60
2018-01-17T03:12:08.516Z,82.60
2018-01-17T03:14:35.932Z,82.70
2018-01-17T03:17:03.435Z,82.40
2018-01-17T03:19:30.848Z,82.00
2018-01-17T03:21:58.267Z,81.80
2018-01-17T03:24:26.451Z,85.60
2018-01-17T03:26:53.868Z,85.60
2018-01-17T03:29:22.055Z,89.20
2018-01-17T03:31:49.475Z,89.20
2018-01-17T03:34:17.657Z,90.90
2018-01-17T03:36:45.071Z,90.90
2018-01-17T03:39:13.255Z,90.30
2018-01-17T03:41:40.696Z,90.20
2018-01-17T03:44:08.107Z,90.10
2018-01-17T03:46:36.295Z,86.80
2018-01-17T03:49:03.699Z,86.90
2018-01-17T03:51:31.887Z,85.70
2018-01-17T03:53:59.299Z,85.70
2018-01-17T03:56:26.727Z,84.00
2018-01-17T03:58:54.147Z,83.10
2018-01-17T04:01:21.577Z,81.10
2018-01-17T04:03:49.007Z,81.00
2018-01-17T04:06:16.420Z,80.50
2018-01-17T04:08:44.619Z,81.40
2018-01-17T04:11:12.052Z,81.30
2018-01-17T04:13:39.480Z,81.30
2018-01-17T04:16:06.896Z,79.40
2018-01-17T04:18:35.083Z,76.80
2018-01-17T04:21:02.503Z,76.70
2018-01-17T04:23:30.687Z,78.80
2018-01-17T04:25:58.103Z,78.80
2018-01-17T04:28:25.543Z,80.50
2018-01-17T04:30:53.727Z,90.10
2018-01-17T04:33:21.144Z,90.10
2018-01-17T04:35:49.323Z,92.80
2018-01-17T04:38:16.735Z,92.70
2018-01-17T04:40:44.931Z,93.80
2018-01-17T04:43:12.355Z,93.80
2018-01-17T04:45:39.767Z,93.90
2018-01-17T04:48:07.196Z,94.10
2018-01-17T04:50:34.604Z,94.20
2018-01-17T04:53:02.028Z,94.20
2018-01-17T04:55:29.456Z,94.20
2018-01-17T04:57:56.875Z,94.20
2018-01-17T05:00:25.061Z,92.10
2018-01-17T05:02:52.477Z,92.00
2018-01-17T05:05:20.660Z,90.40
2018-01-17T05:07:48.088Z,90.30
2018-01-17T05:10:16.259Z,89.80
2018-01-17T05:12:43.696Z,89.80
2018-01-17T05:15:11.107Z,90.00
2018-01-17T05:17:40.055Z,87.70
2018-01-17T05:20:07.495Z,87.60
2018-01-17T05:22:34.955Z,87.50
2018-01-17T05:25:02.332Z,88.10
2018-01-17T05:27:30.531Z,86.30
2018-01-17T05:29:57.943Z,86.30
2018-01-17T05:32:25.376Z,84.90
2018-01-17T05:34:52.795Z,85.50
2018-01-17T05:37:20.211Z,85.80
2018-01-17T05:39:47.640Z,85.90
2018-01-17T05:42:15.412Z,86.60
2018-01-17T05:44:42.818Z,84.90
2018-01-17T05:47:10.253Z,84.70
2018-01-17T05:49:37.703Z,84.10
2018-01-17T05:52:05.172Z,83.40
2018-01-17T05:54:32.617Z,83.00
2018-01-17T05:57:00.040Z,82.80
2018-01-17T05:59:27.456Z,82.10
2018-01-17T06:01:54.871Z,81.80
2018-01-17T06:04:23.059Z,82.00
2018-01-17T06:06:50.495Z,82.00
2018-01-17T06:09:17.908Z,82.20
2018-01-17T06:11:46.083Z,82.20
2018-01-17T06:14:13.520Z,82.20
2018-01-17T06:16:41.703Z,82.10
2018-01-17T06:19:09.124Z,81.90
2018-01-17T06:21:36.556Z,79.70
2018-01-17T06:24:04.748Z,80.10
2018-01-17T06:26:32.164Z,80.00
2018-01-17T06:28:59.595Z,79.60
2018-01-17T06:31:27.784Z,78.40
2018-01-17T06:33:55.221Z,78.40
2018-01-17T06:36:22.655Z,77.50
2018-01-17T06:38:50.064Z,76.20
2018-01-17T06:41:18.248Z,77.20
2018-01-17T06:43:45.676Z,77.10
2018-01-17T06:46:13.104Z,76.10
2018-01-17T06:48:40.523Z,76.80
2018-01-17T06:51:07.932Z,76.10
2018-01-17T06:53:35.351Z,76.70
2018-01-17T06:56:02.783Z,76.80
2018-01-17T06:58:30.980Z,75.70
2018-01-17T07:00:58.414Z,75.60
2018-01-17T07:03:25.849Z,77.20
2018-01-17T07:05:53.295Z,77.20
2018-01-17T07:08:20.774Z,77.50
2018-01-17T07:10:48.201Z,77.90
2018-01-17T07:13:15.615Z,80.10
2018-01-17T07:15:43.032Z,80.60
2018-01-17T07:18:11.215Z,80.60
2018-01-17T07:20:38.667Z,80.50
2018-01-17T07:23:06.102Z,82.00
2018-01-17T07:25:33.510Z,87.20
2018-01-17T07:28:01.703Z,91.00
2018-01-17T07:30:29.113Z,90.90
2018-01-17T07:32:57.291Z,92.30
2018-01-17T07:35:24.715Z,92.20
2018-01-17T07:37:52.900Z,91.40
2018-01-17T07:40:20.323Z,91.40
2018-01-17T07:42:47.751Z,90.50
2018-01-17T07:45:15.949Z,89.20
2018-01-17T07:47:43.367Z,88.30
2018-01-17T07:50:10.824Z,88.20
2018-01-17T07:52:38.243Z,86.60
2018-01-17T07:55:06.445Z,81.50
2018-01-17T07:57:33.864Z,81.50
2018-01-17T08:00:01.293Z,79.80
2018-01-17T08:02:28.707Z,79.10
2018-01-17T08:04:56.888Z,78.00
2018-01-17T08:07:25.079Z,78.30
2018-01-17T08:09:52.508Z,78.30
2018-01-17T08:12:19.936Z,78.30
2018-01-17T08:14:47.356Z,78.30
2018-01-17T08:17:15.552Z,77.80
2018-01-17T08:19:42.963Z,77.70
2018-01-17T08:22:11.160Z,76.70
2018-01-17T08:24:38.576Z,76.70
2018-01-17T08:27:05.996Z,76.50
2018-01-17T08:29:34.198Z,75.80
2018-01-17T08:32:01.611Z,75.80
2018-01-17T08:34:29.811Z,75.80
2018-01-17T08:36:57.227Z,75.80
2018-01-17T08:39:24.648Z,75.50
2018-01-17T08:41:52.831Z,77.20
2018-01-17T08:44:20.261Z,77.20
2018-01-17T08:46:48.455Z,80.10
2018-01-17T08:49:15.880Z,80.00
2018-01-17T08:51:43.312Z,80.90
2018-01-17T08:54:10.727Z,82.30
2018-01-17T08:56:38.928Z,82.50
2018-01-17T08:59:06.364Z,82.40
2018-01-17T09:01:33.772Z,82.70
2018-01-17T09:04:02.011Z,78.00
2018-01-17T09:06:29.544Z,77.90
2018-01-17T09:08:56.969Z,77.40
2018-01-17T09:11:24.383Z,77.60
2018-01-17T09:13:51.808Z,76.50
2018-01-17T09:16:19.242Z,77.90
2018-01-17T09:18:47.423Z,79.90
2018-01-17T09:21:14.844Z,79.80
2018-01-17T09:23:43.031Z,80.20
2018-01-17T09:26:10.447Z,80.10
2018-01-17T09:28:37.884Z,81.10
2018-01-17T09:31:06.081Z,81.60
2018-01-17T09:33:33.495Z,81.60
2018-01-17T09:36:00.923Z,81.60
2018-01-17T09:38:29.115Z,80.50
2018-01-17T09:40:56.531Z,80.30
2018-01-17T09:43:23.967Z,80.60
2018-01-17T09:45:52.169Z,82.40
2018-01-17T09:48:19.620Z,82.40
2018-01-17T09:50:47.048Z,83.70
2018-01-17T09:53:14.464Z,82.70
2018-01-17T09:55:41.932Z,83.30
2018-01-17T09:58:10.088Z,81.10
2018-01-17T10:00:37.505Z,81.10
2018-01-17T10:03:04.923Z,80.60
2018-01-17T10:05:33.112Z,79.50
2018-01-17T10:08:00.524Z,79.40
2018-01-17T10:10:28.739Z,77.20
2018-01-17T10:12:56.160Z,77.10
2018-01-17T10:15:23.588Z,76.90
2018-01-17T10:17:51.007Z,77.90
2018-01-17T10:20:19.191Z,76.90
2018-01-17T10:22:46.603Z,76.90
2018-01-17T10:25:14.808Z,78.80
2018-01-17T10:27:42.204Z,78.00
2018-01-17T10:30:10.402Z,78.40
2018-01-17T10:32:37.815Z,78.30
2018-01-17T10:35:05.995Z,78.70
2018-01-17T10:37:33.423Z,78.60
2018-01-17T10:40:00.876Z,77.10
2018-01-17T10:42:28.464Z,75.90
2018-01-17T10:44:55.880Z,77.70
2018-01-17T10:47:23.296Z,76.80
2018-01-17T10:49:50.723Z,76.80
2018-01-17T10:52:18.906Z,76.30
2018-01-17T10:54:46.329Z,76.30
2018-01-17T10:57:13.743Z,77.40
2018-01-17T10:59:41.255Z,74.50
2018-01-17T11:02:08.692Z,75.70
2018-01-17T11:04:36.128Z,75.30
2018-01-17T11:07:03.539Z,75.10
2018-01-17T11:09:30.964Z,74.60
2018-01-17T11:11:59.147Z,73.60
2018-01-17T11:14:26.569Z,73.60
2018-01-17T11:16:54.752Z,74.70
2018-01-17T11:19:22.184Z,74.70
2018-01-17T11:21:49.603Z,73.80
2018-01-17T11:24:17.799Z,74.70
2018-01-17T11:26:45.215Z,74.60
2018-01-17T11:29:13.401Z,72.80
2018-01-17T11:31:40.812Z,72.70
2018-01-17T11:34:08.996Z,73.10
2018-01-17T11:36:36.423Z,72.90
2018-01-17T11:39:03.844Z,73.20
2018-01-17T11:41:32.032Z,73.30
2018-01-17T11:43:59.456Z,73.20
2018-01-17T11:46:26.885Z,72.50
2018-01-17T11:48:55.084Z,68.50
2018-01-17T11:51:22.492Z,68.50
2018-01-17T11:53:50.675Z,66.10
2018-01-17T11:56:18.096Z,65.90
2018-01-17T11:58:46.279Z,68.40
2018-01-17T12:01:13.704Z,68.30
2018-01-17T12:03:41.122Z,69.60
2018-01-17T12:06:09.308Z,68.30
2018-01-17T12:08:36.727Z,68.30
2018-01-17T12:11:04.923Z,69.50
2018-01-17T12:13:32.344Z,69.50
2018-01-17T12:15:59.831Z,69.40
2018-01-17T12:18:27.263Z,69.30
2018-01-17T12:20:54.684Z,68.70
2018-01-17T12:23:22.108Z,67.90
2018-01-17T12:25:49.534Z,69.60
2018-01-17T12:28:17.720Z,69.90
2018-01-17T12:30:45.148Z,69.70
2018-01-17T12:33:12.572Z,69.70
2018-01-17T12:35:40.787Z,69.80
2018-01-17T12:38:08.208Z,69.70
2018-01-17T12:40:35.653Z,70.90
2018-01-17T12:43:03.071Z,70.40
2018-01-17T12:45:31.268Z,70.10
2018-01-17T12:47:58.719Z,70.10
2018-01-17T12:50:26.131Z,70.50
2018-01-17T12:52:53.544Z,70.90
2018-01-17T12:55:21.740Z,71.40
2018-01-17T12:57:49.155Z,71.30
2018-01-17T13:00:16.583Z,72.30
2018-01-17T13:02:44.775Z,71.30
2018-01-17T13:05:12.193Z,71.30
2018-01-17T13:07:40.441Z,69.40
2018-01-17T13:10:07.808Z,69.40
2018-01-17T13:12:35.236Z,70.80
2018-01-17T13:15:03.408Z,72.20
2018-01-17T13:17:30.824Z,72.10
2018-01-17T13:19:59.003Z,71.00
2018-01-17T13:22:26.431Z,70.90
2018-01-17T13:24:54.604Z,69.50
2018-01-17T13:27:22.036Z,69.40
2018-01-17T13:29:50.216Z,67.80
2018-01-17T13:32:17.647Z,67.70
2018-01-17T13:34:45.066Z,67.50
2018-01-17T13:37:13.252Z,67.10
2018-01-17T13:39:40.680Z,67.10
2018-01-17T13:42:08.863Z,66.10
2018-01-17T13:44:36.285Z,66.10
2018-01-17T13:47:03.723Z,67.70
2018-01-17T13:49:31.139Z,66.90
2018-01-17T13:51:58.576Z,65.30
2018-01-17T13:54:26.014Z,63.50
2018-01-17T13:56:53.417Z,63.30
2018-01-17T13:59:20.839Z,63.40
2018-01-17T14:01:48.247Z,64.60
2018-01-17T14:04:16.443Z,63.50
2018-01-17T14:06:43.864Z,64.00
2018-01-17T14:09:12.067Z,65.00
2018-01-17T14:11:39.476Z,65.00
2018-01-17T14:14:06.899Z,65.20
2018-01-17T14:16:35.080Z,64.80
2018-01-17T14:19:02.504Z,64.60
2018-01-17T14:21:30.702Z,66.10
2018-01-17T14:23:58.127Z,66.10
2018-01-17T14:26:25.531Z,65.90
2018-01-17T14:28:53.723Z,68.80
2018-01-17T14:31:21.142Z,68.70
2018-01-17T14:33:49.340Z,68.90
2018-01-17T14:36:16.747Z,68.90
2018-01-17T14:38:44.164Z,69.80
2018-01-17T14:41:13.088Z,68.20
2018-01-17T14:43:40.508Z,68.10
2018-01-17T14:46:07.919Z,68.50
2018-01-17T14:48:35.374Z,68.10
2018-01-17T14:51:02.788Z,68.50
2018-01-17T14:53:30.223Z,68.70
2018-01-17T14:55:57.648Z,68.60
2018-01-17T14:58:25.091Z,70.00
2018-01-17T15:00:52.500Z,71.10
2018-01-17T15:03:19.912Z,71.40
2018-01-17T15:05:47.333Z,72.80
2018-01-17T15:08:14.753Z,74.10
2018-01-17T15:10:42.179Z,74.10
2018-01-17T15:13:09.600Z,74.40
2018-01-17T15:15:37.779Z,74.00
2018-01-17T15:18:05.196Z,73.90
2018-01-17T15:20:33.379Z,71.60
2018-01-17T15:23:00.800Z,71.60
2018-01-17T15:25:28.211Z,71.00
2018-01-17T15:27:56.396Z,70.90
2018-01-17T15:30:24.580Z,69.70
2018-01-17T15:32:52.000Z,69.60
2018-01-17T15:35:19.431Z,70.40
2018-01-17T15:37:47.620Z,70.00
2018-01-17T15:40:15.035Z,70.00
2018-01-17T15:42:43.216Z,69.80
2018-01-17T15:45:10.644Z,69.90
2018-01-17T15:47:38.816Z,70.80
2018-01-17T15:50:06.959Z,70.80
2018-01-17T15:52:34.387Z,70.30
2018-01-17T15:55:02.577Z,68.50
2018-01-17T15:57:29.990Z,68.50
2018-01-17T15:59:58.179Z,68.00
2018-01-17T16:02:25.620Z,68.60
2018-01-17T16:04:53.031Z,68.60
2018-01-17T16:07:21.227Z,69.50
2018-01-17T16:09:48.649Z,70.30
2018-01-17T16:12:16.068Z,70.80
2018-01-17T16:14:43.487Z,75.20
2018-01-17T16:17:10.916Z,79.20
2018-01-17T16:19:38.343Z,80.60
2018-01-17T16:22:05.779Z,83.20
2018-01-17T16:24:33.206Z,86.20
2018-01-17T16:27:00.624Z,89.70
2018-01-17T16:29:28.822Z,92.10
2018-01-17T16:31:56.235Z,92.10
2018-01-17T16:34:23.651Z,92.90
2018-01-17T16:36:51.839Z,93.50
2018-01-17T16:39:19.255Z,93.50
2018-01-17T16:41:47.576Z,93.70
2018-01-17T16:44:14.999Z,93.70
2018-01-17T16:46:42.424Z,93.70
2018-01-17T16:49:09.844Z,93.50
2018-01-17T16:51:38.034Z,93.00
2018-01-17T16:54:05.447Z,93.00
2018-01-17T16:56:33.648Z,91.90
2018-01-17T16:59:01.071Z,91.90
2018-01-17T17:01:28.488Z,91.40
2018-01-17T17:03:56.672Z,90.20
2018-01-17T17:06:24.093Z,90.20
2018-01-17T17:08:51.528Z,90.00
2018-01-17T17:11:18.948Z,89.70
2018-01-17T17:13:46.391Z,90.00
2018-01-17T17:16:14.572Z,90.10
2018-01-17T17:18:42.759Z,90.20
2018-01-17T17:21:10.175Z,90.20
2018-01-17T17:23:37.599Z,90.60
2018-01-17T17:26:05.783Z,90.50
2018-01-17T17:28:33.199Z,90.50
2018-01-17T17:31:01.407Z,91.00
2018-01-17T17:33:28.856Z,90.80
2018-01-17T17:35:56.285Z,90.40
2018-01-17T17:38:23.695Z,90.30
2018-01-17T17:40:51.898Z,88.30
2018-01-17T17:43:19.321Z,88.20
2018-01-17T17:45:46.735Z,89.20
2018-01-17T17:48:14.936Z,90.50
2018-01-17T17:50:42.354Z,90.50
2018-01-17T17:53:09.775Z,90.80
2018-01-17T17:55:37.970Z,92.20
2018-01-17T17:58:05.398Z,92.10
2018-01-17T18:00:32.820Z,92.40
2018-01-17T18:03:01.008Z,92.60
2018-01-17T18:05:28.420Z,92.60
2018-01-17T18:07:56.607Z,92.60
2018-01-17T18:10:24.035Z,92.60
2018-01-17T18:12:51.456Z,92.30
2018-01-17T18:15:19.655Z,91.40
2018-01-17T18:17:47.080Z,91.40
2018-01-17T18:20:14.496Z,91.10
2018-01-17T18:22:41.939Z,90.70
2018-01-17T18:25:10.124Z,89.80
2018-01-17T18:27:37.544Z,89.80
2018-01-17T18:30:06.503Z,88.40
2018-01-17T18:32:33.948Z,88.50
2018-01-17T18:35:02.148Z,87.60
2018-01-17T18:37:29.584Z,88.00
2018-01-17T18:39:56.991Z,87.30
2018-01-17T18:42:25.180Z,85.20
2018-01-17T18:44:52.596Z,85.20
2018-01-17T18:47:20.801Z,83.60
2018-01-17T18:49:48.196Z,83.60
2018-01-17T18:52:15.623Z,83.40
2018-01-17T18:54:43.043Z,82.20
2018-01-17T18:57:10.684Z,82.60
2018-01-17T18:59:38.099Z,82.30
2018-01-17T19:02:05.531Z,80.90
2018-01-17T19:04:32.960Z,81.00
2018-01-17T19:07:01.146Z,81.60
2018-01-17T19:09:28.563Z,81.50
2018-01-17T19:11:55.984Z,80.80
2018-01-17T19:14:24.163Z,80.50
2018-01-17T19:16:51.579Z,80.50
2018-01-17T19:19:19.016Z,81.00
2018-01-17T19:21:46.452Z,80.70
2018-01-17T19:24:13.863Z,79.90
2018-01-17T19:26:41.330Z,80.50
2018-01-17T19:29:08.747Z,80.80
2018-01-17T19:31:36.226Z,80.10
2018-01-17T19:34:03.647Z,80.40
2018-01-17T19:36:31.832Z,81.10
2018-01-17T19:39:00.021Z,81.90
2018-01-17T19:41:27.456Z,81.40
2018-01-17T19:43:54.942Z,80.80
2018-01-17T19:46:22.346Z,79.90
2018-01-17T19:48:51.553Z,79.00
2018-01-17T19:51:18.979Z,79.00
2018-01-17T19:53:46.400Z,78.20
2018-01-17T19:56:13.868Z,78.20
2018-01-17T19:58:41.313Z,77.60
2018-01-17T20:01:08.715Z,77.30
2018-01-17T20:03:36.906Z,75.20
2018-01-17T20:06:04.365Z,75.10
2018-01-17T20:08:31.787Z,74.70
2018-01-17T20:10:59.212Z,74.50
2018-01-17T20:13:26.631Z,74.80
2018-01-17T20:15:54.843Z,75.30
2018-01-17T20:18:22.313Z,75.30
2018-01-17T20:20:49.765Z,74.70
2018-01-17T20:23:17.214Z,74.00
2018-01-17T20:25:46.177Z,75.70
2018-01-17T20:28:13.595Z,75.70
2018-01-17T20:30:41.016Z,76.60
2018-01-17T20:33:08.444Z,76.50
2018-01-17T20:35:35.907Z,75.90
2018-01-17T20:38:03.359Z,76.10
2018-01-17T20:40:30.777Z,75.70
2018-01-17T20:42:58.256Z,77.50
2018-01-17T20:45:25.664Z,80.40
2018-01-17T20:47:53.127Z,81.90
2018-01-17T20:50:20.540Z,84.90
2018-01-17T20:52:47.966Z,87.30
2018-01-17T20:55:16.172Z,87.60
2018-01-17T20:57:43.648Z,87.60
2018-01-17T21:00:11.093Z,85.00
2018-01-17T21:02:38.549Z,83.40
2018-01-17T21:05:06.734Z,79.90
2018-01-17T21:07:34.204Z,79.80
2018-01-17T21:10:01.635Z,79.40
2018-01-17T21:12:29.068Z,79.30
2018-01-17T21:14:56.525Z,78.40
2018-01-17T21:17:23.975Z,78.50
2018-01-17T21:19:51.444Z,77.90
2018-01-17T21:22:18.860Z,78.20
2018-01-17T21:24:46.313Z,78.90
2018-01-17T21:27:13.761Z,78.80
2018-01-17T21:29:41.173Z,79.00
2018-01-17T21:32:08.604Z,79.40
2018-01-17T21:34:36.044Z,78.80
2018-01-17T21:37:03.475Z,78.80
2018-01-17T21:39:30.938Z,79.00
2018-01-17T21:41:58.349Z,79.40
2018-01-17T21:44:31.481Z,79.30
2018-01-17T21:46:58.941Z,79.50
2018-01-17T21:49:26.382Z,79.30
2018-01-17T21:51:54.555Z,79.20
2018-01-17T21:54:22.032Z,78.90
2018-01-17T21:56:49.497Z,79.30
2018-01-17T21:59:16.900Z,78.70
2018-01-17T22:01:44.320Z,78.20
2018-01-17T22:04:11.777Z,78.30
2018-01-17T22:06:39.199Z,79.10
2018-01-17T22:09:07.424Z,86.10
2018-01-17T22:11:34.955Z,86.10
2018-01-17T22:14:02.384Z,88.70
2018-01-17T22:16:29.800Z,88.80
2018-01-17T22:18:57.285Z,88.90
2018-01-17T22:21:24.742Z,89.90
2018-01-17T22:23:52.144Z,90.30
2018-01-17T22:26:19.574Z,90.50
2018-01-17T22:28:46.983Z,90.90
2018-01-17T22:31:15.179Z,91.60
2018-01-17T22:33:42.612Z,91.50
2018-01-17T22:36:10.073Z,91.90
2018-01-17T22:38:37.480Z,92.20
2018-01-17T22:41:04.891Z,92.50
2018-01-17T22:43:33.127Z,92.70
2018-01-17T22:46:00.543Z,92.90
2018-01-17T22:48:27.973Z,93.10
2018-01-17T22:50:55.391Z,93.20
2018-01-17T22:53:23.576Z,93.70
2018-01-17T22:55:51.003Z,93.60
2018-01-17T22:58:18.419Z,93.90
2018-01-17T23:00:46.604Z,94.00
2018-01-17T23:03:14.073Z,94.00
2018-01-17T23:05:41.487Z,93.90
2018-01-17T23:08:08.899Z,94.00
2018-01-17T23:10:36.319Z,93.80
2018-01-17T23:13:03.741Z,94.10
2018-01-17T23:15:31.151Z,94.00
2018-01-17T23:17:58.566Z,93.90
2018-01-17T23:20:26.771Z,94.10
2018-01-17T23:22:54.219Z,94.00
2018-01-17T23:25:21.611Z,94.10
2018-01-17T23:27:49.814Z,94.00
2018-01-17T23:30:17.224Z,94.00
2018-01-17T23:32:45.407Z,93.80
2018-01-17T23:35:12.831Z,93.80
2018-01-17T23:37:40.257Z,93.70
2018-01-17T23:40:08.439Z,93.60
2018-01-17T23:42:35.859Z,93.60
2018-01-17T23:45:04.064Z,94.00
2018-01-17T23:47:31.476Z,94.00
2018-01-17T23:49:58.899Z,94.00
2018-01-17T23:52:27.093Z,93.60
2018-01-17T23:54:54.510Z,93.50
2018-01-17T23:57:22.683Z,93.80
2018-01-17T23:59:50.107Z,93.80
